sensor_id;sensor_type;location;lat;lon;timestamp;P1;durP1;ratioP1;P2;durP2;ratioP2
76848;SDS011;65814;51.134;16.980;2024-02-26T00:00:24;16.40;;;9.50;;
76848;SDS011;65814;51.134;16.980;2024-02-26T00:03:12;16.90;;;10.60;;
76848;SDS011;65814;51.134;16.980;2024-02-26T00:05:40;15.80;;;9.50;;
76848;SDS011;65814;51.134;16.980;2024-02-26T00:08:08;18.40;;;10.20;;
76848;SDS011;65814;51.134;16.980;2024-02-26T00:10:36;18.10;;;11.00;;
76848;SDS011;65814;51.134;16.980;2024-02-26T00:13:04;15.90;;;9.70;;
76848;SDS011;65814;51.134;16.980;2024-02-26T00:15:32;17.00;;;10.20;;
76848;SDS011;65814;51.134;16.980;2024-02-26T00:18:02;17.40;;;10.90;;
76848;SDS011;65814;51.134;16.980;2024-02-26T00:20:30;23.10;;;12.10;;
76848;SDS011;65814;51.134;16.980;2024-02-26T00:22:59;21.30;;;11.90;;
76848;SDS011;65814;51.134;16.980;2024-02-26T00:25:27;22.60;;;13.10;;
76848;SDS011;65814;51.134;16.980;2024-02-26T00:27:55;23.90;;;13.10;;
76848;SDS011;65814;51.134;16.980;2024-02-26T00:30:23;21.60;;;13.50;;
76848;SDS011;65814;51.134;16.980;2024-02-26T00:32:51;27.60;;;15.40;;
76848;SDS011;65814;51.134;16.980;2024-02-26T00:35:19;21.80;;;13.30;;
76848;SDS011;65814;51.134;16.980;2024-02-26T00:37:48;25.80;;;14.80;;
76848;SDS011;65814;51.134;16.980;2024-02-26T00:40:16;28.20;;;15.40;;
76848;SDS011;65814;51.134;16.980;2024-02-26T00:42:44;27.80;;;15.20;;
76848;SDS011;65814;51.134;16.980;2024-02-26T00:45:14;23.90;;;16.10;;
76848;SDS011;65814;51.134;16.980;2024-02-26T00:47:43;21.00;;;14.90;;
76848;SDS011;65814;51.134;16.980;2024-02-26T00:50:13;24.00;;;15.70;;
76848;SDS011;65814;51.134;16.980;2024-02-26T00:52:41;24.40;;;15.90;;
76848;SDS011;65814;51.134;16.980;2024-02-26T00:55:09;28.10;;;17.10;;
76848;SDS011;65814;51.134;16.980;2024-02-26T00:57:37;26.40;;;16.20;;
76848;SDS011;65814;51.134;16.980;2024-02-26T01:00:05;37.30;;;17.80;;
76848;SDS011;65814;51.134;16.980;2024-02-26T01:02:37;28.10;;;17.00;;
76848;SDS011;65814;51.134;16.980;2024-02-26T01:05:09;30.30;;;16.90;;
76848;SDS011;65814;51.134;16.980;2024-02-26T01:07:37;26.40;;;16.60;;
76848;SDS011;65814;51.134;16.980;2024-02-26T01:10:06;26.20;;;16.30;;
76848;SDS011;65814;51.134;16.980;2024-02-26T01:12:34;25.60;;;18.20;;
76848;SDS011;65814;51.134;16.980;2024-02-26T01:15:02;28.20;;;18.00;;
76848;SDS011;65814;51.134;16.980;2024-02-26T01:17:31;24.30;;;17.20;;
76848;SDS011;65814;51.134;16.980;2024-02-26T01:19:59;26.20;;;17.70;;
76848;SDS011;65814;51.134;16.980;2024-02-26T01:22:27;28.00;;;17.80;;
76848;SDS011;65814;51.134;16.980;2024-02-26T01:24:56;24.90;;;16.30;;
76848;SDS011;65814;51.134;16.980;2024-02-26T01:27:24;27.10;;;16.50;;
76848;SDS011;65814;51.134;16.980;2024-02-26T01:29:54;29.20;;;17.30;;
76848;SDS011;65814;51.134;16.980;2024-02-26T01:32:22;27.90;;;16.60;;
76848;SDS011;65814;51.134;16.980;2024-02-26T01:34:50;26.00;;;18.40;;
76848;SDS011;65814;51.134;16.980;2024-02-26T01:37:18;27.20;;;16.40;;
76848;SDS011;65814;51.134;16.980;2024-02-26T01:39:46;26.20;;;16.30;;
76848;SDS011;65814;51.134;16.980;2024-02-26T01:42:14;25.00;;;16.30;;
76848;SDS011;65814;51.134;16.980;2024-02-26T01:44:42;26.00;;;15.70;;
76848;SDS011;65814;51.134;16.980;2024-02-26T01:47:11;24.90;;;15.60;;
76848;SDS011;65814;51.134;16.980;2024-02-26T01:49:39;20.50;;;14.50;;
76848;SDS011;65814;51.134;16.980;2024-02-26T01:52:08;25.20;;;15.10;;
76848;SDS011;65814;51.134;16.980;2024-02-26T01:54:36;26.30;;;15.30;;
76848;SDS011;65814;51.134;16.980;2024-02-26T01:57:05;27.70;;;16.50;;
76848;SDS011;65814;51.134;16.980;2024-02-26T01:59:34;23.20;;;15.80;;
76848;SDS011;65814;51.134;16.980;2024-02-26T02:02:03;26.00;;;15.40;;
76848;SDS011;65814;51.134;16.980;2024-02-26T02:04:34;24.00;;;14.60;;
76848;SDS011;65814;51.134;16.980;2024-02-26T02:07:03;27.20;;;15.40;;
76848;SDS011;65814;51.134;16.980;2024-02-26T02:09:32;25.40;;;15.30;;
76848;SDS011;65814;51.134;16.980;2024-02-26T02:12:00;27.30;;;15.60;;
76848;SDS011;65814;51.134;16.980;2024-02-26T02:14:29;28.70;;;15.60;;
76848;SDS011;65814;51.134;16.980;2024-02-26T02:16:57;25.30;;;15.10;;
76848;SDS011;65814;51.134;16.980;2024-02-26T02:19:25;21.50;;;14.50;;
76848;SDS011;65814;51.134;16.980;2024-02-26T02:21:53;22.30;;;14.80;;
76848;SDS011;65814;51.134;16.980;2024-02-26T02:24:21;25.80;;;16.50;;
76848;SDS011;65814;51.134;16.980;2024-02-26T02:26:49;31.30;;;16.10;;
76848;SDS011;65814;51.134;16.980;2024-02-26T02:29:17;25.80;;;15.00;;
76848;SDS011;65814;51.134;16.980;2024-02-26T02:31:45;24.00;;;16.00;;
76848;SDS011;65814;51.134;16.980;2024-02-26T02:34:13;24.00;;;16.60;;
76848;SDS011;65814;51.134;16.980;2024-02-26T02:36:48;26.20;;;16.40;;
76848;SDS011;65814;51.134;16.980;2024-02-26T02:39:20;23.80;;;16.20;;
76848;SDS011;65814;51.134;16.980;2024-02-26T02:41:48;26.90;;;16.00;;
76848;SDS011;65814;51.134;16.980;2024-02-26T02:44:16;27.10;;;16.80;;
76848;SDS011;65814;51.134;16.980;2024-02-26T02:46:45;24.90;;;16.50;;
76848;SDS011;65814;51.134;16.980;2024-02-26T02:49:13;32.00;;;18.20;;
76848;SDS011;65814;51.134;16.980;2024-02-26T02:51:42;28.80;;;17.30;;
76848;SDS011;65814;51.134;16.980;2024-02-26T02:54:10;28.30;;;17.10;;
76848;SDS011;65814;51.134;16.980;2024-02-26T02:56:40;26.10;;;16.20;;
76848;SDS011;65814;51.134;16.980;2024-02-26T02:59:08;22.90;;;15.10;;
76848;SDS011;65814;51.134;16.980;2024-02-26T03:01:36;28.70;;;17.10;;
76848;SDS011;65814;51.134;16.980;2024-02-26T03:04:04;27.00;;;17.30;;
76848;SDS011;65814;51.134;16.980;2024-02-26T03:06:32;25.80;;;17.00;;
76848;SDS011;65814;51.134;16.980;2024-02-26T03:09:00;26.30;;;15.70;;
76848;SDS011;65814;51.134;16.980;2024-02-26T03:11:28;26.80;;;16.60;;
76848;SDS011;65814;51.134;16.980;2024-02-26T03:13:56;27.40;;;15.50;;
76848;SDS011;65814;51.134;16.980;2024-02-26T03:16:24;25.80;;;16.30;;
76848;SDS011;65814;51.134;16.980;2024-02-26T03:18:52;21.90;;;15.10;;
76848;SDS011;65814;51.134;16.980;2024-02-26T03:21:20;24.40;;;15.00;;
76848;SDS011;65814;51.134;16.980;2024-02-26T03:23:49;25.40;;;16.00;;
76848;SDS011;65814;51.134;16.980;2024-02-26T03:26:17;25.90;;;14.70;;
76848;SDS011;65814;51.134;16.980;2024-02-26T03:28:45;22.60;;;14.50;;
76848;SDS011;65814;51.134;16.980;2024-02-26T03:31:13;24.20;;;14.80;;
76848;SDS011;65814;51.134;16.980;2024-02-26T03:33:41;22.80;;;15.10;;
76848;SDS011;65814;51.134;16.980;2024-02-26T03:36:09;20.80;;;14.50;;
76848;SDS011;65814;51.134;16.980;2024-02-26T03:38:37;22.30;;;14.70;;
76848;SDS011;65814;51.134;16.980;2024-02-26T03:41:05;23.20;;;14.80;;
76848;SDS011;65814;51.134;16.980;2024-02-26T03:43:33;22.20;;;14.10;;
76848;SDS011;65814;51.134;16.980;2024-02-26T03:46:01;27.50;;;14.70;;
76848;SDS011;65814;51.134;16.980;2024-02-26T03:48:29;22.30;;;13.50;;
76848;SDS011;65814;51.134;16.980;2024-02-26T03:50:58;24.90;;;14.10;;
76848;SDS011;65814;51.134;16.980;2024-02-26T03:53:26;20.30;;;13.60;;
76848;SDS011;65814;51.134;16.980;2024-02-26T03:55:54;21.60;;;14.20;;
76848;SDS011;65814;51.134;16.980;2024-02-26T03:58:22;20.60;;;12.80;;
76848;SDS011;65814;51.134;16.980;2024-02-26T04:00:50;23.00;;;12.70;;
76848;SDS011;65814;51.134;16.980;2024-02-26T04:03:21;18.80;;;12.50;;
76848;SDS011;65814;51.134;16.980;2024-02-26T04:05:49;23.00;;;14.10;;
76848;SDS011;65814;51.134;16.980;2024-02-26T04:08:17;26.40;;;13.40;;
76848;SDS011;65814;51.134;16.980;2024-02-26T04:10:45;21.30;;;14.30;;
76848;SDS011;65814;51.134;16.980;2024-02-26T04:13:13;19.80;;;12.40;;
76848;SDS011;65814;51.134;16.980;2024-02-26T04:15:42;21.40;;;13.60;;
76848;SDS011;65814;51.134;16.980;2024-02-26T04:18:10;21.20;;;13.50;;
76848;SDS011;65814;51.134;16.980;2024-02-26T04:20:38;21.50;;;13.90;;
76848;SDS011;65814;51.134;16.980;2024-02-26T04:23:06;21.60;;;13.40;;
76848;SDS011;65814;51.134;16.980;2024-02-26T04:25:36;21.60;;;13.50;;
76848;SDS011;65814;51.134;16.980;2024-02-26T04:28:04;22.50;;;14.50;;
76848;SDS011;65814;51.134;16.980;2024-02-26T04:30:32;21.70;;;12.70;;
76848;SDS011;65814;51.134;16.980;2024-02-26T04:33:02;24.70;;;13.20;;
76848;SDS011;65814;51.134;16.980;2024-02-26T04:35:31;21.30;;;13.50;;
76848;SDS011;65814;51.134;16.980;2024-02-26T04:37:59;19.40;;;12.60;;
76848;SDS011;65814;51.134;16.980;2024-02-26T04:40:26;22.20;;;13.70;;
76848;SDS011;65814;51.134;16.980;2024-02-26T04:42:55;20.70;;;12.50;;
76848;SDS011;65814;51.134;16.980;2024-02-26T04:45:23;23.40;;;13.30;;
76848;SDS011;65814;51.134;16.980;2024-02-26T04:47:51;21.50;;;14.40;;
76848;SDS011;65814;51.134;16.980;2024-02-26T04:50:19;20.50;;;13.80;;
76848;SDS011;65814;51.134;16.980;2024-02-26T04:52:47;19.40;;;12.50;;
76848;SDS011;65814;51.134;16.980;2024-02-26T04:55:15;22.70;;;13.40;;
76848;SDS011;65814;51.134;16.980;2024-02-26T04:57:43;19.00;;;12.80;;
76848;SDS011;65814;51.134;16.980;2024-02-26T05:00:11;20.50;;;13.20;;
76848;SDS011;65814;51.134;16.980;2024-02-26T05:02:40;18.50;;;12.80;;
76848;SDS011;65814;51.134;16.980;2024-02-26T05:05:08;19.00;;;12.20;;
76848;SDS011;65814;51.134;16.980;2024-02-26T05:07:40;20.50;;;12.40;;
76848;SDS011;65814;51.134;16.980;2024-02-26T05:10:09;20.80;;;13.20;;
76848;SDS011;65814;51.134;16.980;2024-02-26T05:12:38;20.80;;;13.70;;
76848;SDS011;65814;51.134;16.980;2024-02-26T05:15:06;20.00;;;13.00;;
76848;SDS011;65814;51.134;16.980;2024-02-26T05:17:35;19.60;;;12.50;;
76848;SDS011;65814;51.134;16.980;2024-02-26T05:20:03;20.70;;;12.70;;
76848;SDS011;65814;51.134;16.980;2024-02-26T05:22:31;19.80;;;12.10;;
76848;SDS011;65814;51.134;16.980;2024-02-26T05:24:59;20.00;;;12.70;;
76848;SDS011;65814;51.134;16.980;2024-02-26T05:27:27;23.20;;;12.40;;
76848;SDS011;65814;51.134;16.980;2024-02-26T05:29:55;22.70;;;13.90;;
76848;SDS011;65814;51.134;16.980;2024-02-26T05:32:24;20.40;;;12.40;;
76848;SDS011;65814;51.134;16.980;2024-02-26T05:34:52;18.50;;;12.70;;
76848;SDS011;65814;51.134;16.980;2024-02-26T05:37:20;21.10;;;13.10;;
76848;SDS011;65814;51.134;16.980;2024-02-26T05:39:47;22.70;;;12.60;;
76848;SDS011;65814;51.134;16.980;2024-02-26T05:42:16;17.50;;;11.70;;
76848;SDS011;65814;51.134;16.980;2024-02-26T05:44:44;23.30;;;14.20;;
76848;SDS011;65814;51.134;16.980;2024-02-26T05:47:12;21.10;;;12.70;;
76848;SDS011;65814;51.134;16.980;2024-02-26T05:49:41;26.30;;;12.30;;
76848;SDS011;65814;51.134;16.980;2024-02-26T05:52:09;18.90;;;12.50;;
76848;SDS011;65814;51.134;16.980;2024-02-26T05:54:37;19.00;;;12.20;;
76848;SDS011;65814;51.134;16.980;2024-02-26T05:57:05;21.60;;;13.10;;
76848;SDS011;65814;51.134;16.980;2024-02-26T05:59:33;18.20;;;11.90;;
76848;SDS011;65814;51.134;16.980;2024-02-26T06:02:01;19.00;;;12.60;;
76848;SDS011;65814;51.134;16.980;2024-02-26T06:04:29;17.60;;;12.60;;
76848;SDS011;65814;51.134;16.980;2024-02-26T06:06:57;20.50;;;12.30;;
76848;SDS011;65814;51.134;16.980;2024-02-26T06:09:25;18.80;;;13.20;;
76848;SDS011;65814;51.134;16.980;2024-02-26T06:11:53;20.20;;;13.10;;
76848;SDS011;65814;51.134;16.980;2024-02-26T06:14:21;18.60;;;12.10;;
76848;SDS011;65814;51.134;16.980;2024-02-26T06:16:49;23.10;;;14.50;;
76848;SDS011;65814;51.134;16.980;2024-02-26T06:19:17;20.10;;;13.60;;
76848;SDS011;65814;51.134;16.980;2024-02-26T06:21:45;22.20;;;13.00;;
76848;SDS011;65814;51.134;16.980;2024-02-26T06:24:13;19.00;;;12.30;;
76848;SDS011;65814;51.134;16.980;2024-02-26T06:26:41;24.00;;;13.00;;
76848;SDS011;65814;51.134;16.980;2024-02-26T06:29:09;21.20;;;13.40;;
76848;SDS011;65814;51.134;16.980;2024-02-26T06:31:37;25.30;;;13.10;;
76848;SDS011;65814;51.134;16.980;2024-02-26T06:34:05;21.10;;;12.60;;
76848;SDS011;65814;51.134;16.980;2024-02-26T06:36:33;21.10;;;12.90;;
76848;SDS011;65814;51.134;16.980;2024-02-26T06:39:02;21.90;;;13.40;;
76848;SDS011;65814;51.134;16.980;2024-02-26T06:41:30;18.50;;;12.40;;
76848;SDS011;65814;51.134;16.980;2024-02-26T06:43:58;24.70;;;13.90;;
76848;SDS011;65814;51.134;16.980;2024-02-26T06:46:26;20.80;;;13.90;;
76848;SDS011;65814;51.134;16.980;2024-02-26T06:48:56;23.50;;;13.00;;
76848;SDS011;65814;51.134;16.980;2024-02-26T06:51:24;23.30;;;13.70;;
76848;SDS011;65814;51.134;16.980;2024-02-26T06:53:53;24.90;;;14.30;;
76848;SDS011;65814;51.134;16.980;2024-02-26T06:56:21;22.20;;;12.90;;
76848;SDS011;65814;51.134;16.980;2024-02-26T06:58:49;20.90;;;12.80;;
76848;SDS011;65814;51.134;16.980;2024-02-26T07:01:17;24.60;;;13.70;;
76848;SDS011;65814;51.134;16.980;2024-02-26T07:03:45;19.20;;;13.20;;
76848;SDS011;65814;51.134;16.980;2024-02-26T07:06:13;28.30;;;15.30;;
76848;SDS011;65814;51.134;16.980;2024-02-26T07:08:42;25.90;;;14.00;;
76848;SDS011;65814;51.134;16.980;2024-02-26T07:11:10;24.20;;;13.80;;
76848;SDS011;65814;51.134;16.980;2024-02-26T07:13:38;23.00;;;14.40;;
76848;SDS011;65814;51.134;16.980;2024-02-26T07:16:07;25.40;;;16.70;;
76848;SDS011;65814;51.134;16.980;2024-02-26T07:18:38;22.90;;;13.90;;
76848;SDS011;65814;51.134;16.980;2024-02-26T07:21:07;24.30;;;14.30;;
76848;SDS011;65814;51.134;16.980;2024-02-26T07:23:36;25.10;;;15.80;;
76848;SDS011;65814;51.134;16.980;2024-02-26T07:26:04;30.30;;;16.00;;
76848;SDS011;65814;51.134;16.980;2024-02-26T07:28:32;28.10;;;16.20;;
76848;SDS011;65814;51.134;16.980;2024-02-26T07:31:01;27.30;;;17.80;;
76848;SDS011;65814;51.134;16.980;2024-02-26T07:33:29;27.30;;;14.60;;
76848;SDS011;65814;51.134;16.980;2024-02-26T07:35:57;27.40;;;16.80;;
76848;SDS011;65814;51.134;16.980;2024-02-26T07:38:25;27.10;;;15.60;;
76848;SDS011;65814;51.134;16.980;2024-02-26T07:41:09;26.70;;;17.20;;
76848;SDS011;65814;51.134;16.980;2024-02-26T07:43:37;23.70;;;14.50;;
76848;SDS011;65814;51.134;16.980;2024-02-26T07:46:05;21.90;;;15.20;;
76848;SDS011;65814;51.134;16.980;2024-02-26T07:48:33;26.20;;;15.40;;
76848;SDS011;65814;51.134;16.980;2024-02-26T07:51:01;25.30;;;15.80;;
76848;SDS011;65814;51.134;16.980;2024-02-26T07:53:31;26.90;;;15.80;;
76848;SDS011;65814;51.134;16.980;2024-02-26T07:55:59;25.60;;;15.30;;
76848;SDS011;65814;51.134;16.980;2024-02-26T07:58:27;26.20;;;16.10;;
76848;SDS011;65814;51.134;16.980;2024-02-26T08:00:55;25.20;;;15.10;;
76848;SDS011;65814;51.134;16.980;2024-02-26T08:03:24;22.90;;;14.00;;
76848;SDS011;65814;51.134;16.980;2024-02-26T08:05:52;24.90;;;14.00;;
76848;SDS011;65814;51.134;16.980;2024-02-26T08:08:20;22.20;;;13.80;;
76848;SDS011;65814;51.134;16.980;2024-02-26T08:10:49;26.30;;;15.80;;
76848;SDS011;65814;51.134;16.980;2024-02-26T08:13:17;22.10;;;13.80;;
76848;SDS011;65814;51.134;16.980;2024-02-26T08:15:45;22.00;;;14.00;;
76848;SDS011;65814;51.134;16.980;2024-02-26T08:18:13;21.20;;;14.20;;
76848;SDS011;65814;51.134;16.980;2024-02-26T08:20:42;23.00;;;14.20;;
76848;SDS011;65814;51.134;16.980;2024-02-26T08:23:10;24.00;;;15.20;;
76848;SDS011;65814;51.134;16.980;2024-02-26T08:25:38;25.60;;;14.60;;
76848;SDS011;65814;51.134;16.980;2024-02-26T08:28:06;22.20;;;13.70;;
76848;SDS011;65814;51.134;16.980;2024-02-26T08:30:34;22.40;;;13.80;;
76848;SDS011;65814;51.134;16.980;2024-02-26T08:33:02;22.40;;;14.30;;
76848;SDS011;65814;51.134;16.980;2024-02-26T08:35:31;23.40;;;14.20;;
76848;SDS011;65814;51.134;16.980;2024-02-26T08:37:59;17.00;;;11.60;;
76848;SDS011;65814;51.134;16.980;2024-02-26T08:40:27;21.00;;;12.50;;
76848;SDS011;65814;51.134;16.980;2024-02-26T08:42:55;21.60;;;12.30;;
76848;SDS011;65814;51.134;16.980;2024-02-26T08:45:23;17.30;;;11.30;;
76848;SDS011;65814;51.134;16.980;2024-02-26T08:47:55;16.40;;;11.40;;
76848;SDS011;65814;51.134;16.980;2024-02-26T08:50:23;17.70;;;10.90;;
76848;SDS011;65814;51.134;16.980;2024-02-26T08:52:51;19.90;;;11.10;;
76848;SDS011;65814;51.134;16.980;2024-02-26T08:55:21;15.80;;;10.90;;
76848;SDS011;65814;51.134;16.980;2024-02-26T08:57:49;15.20;;;10.60;;
76848;SDS011;65814;51.134;16.980;2024-02-26T09:00:17;14.90;;;9.40;;
76848;SDS011;65814;51.134;16.980;2024-02-26T09:02:48;12.40;;;8.20;;
76848;SDS011;65814;51.134;16.980;2024-02-26T09:05:17;14.20;;;8.70;;
76848;SDS011;65814;51.134;16.980;2024-02-26T09:07:45;12.70;;;8.70;;
76848;SDS011;65814;51.134;16.980;2024-02-26T09:10:14;14.50;;;9.40;;
76848;SDS011;65814;51.134;16.980;2024-02-26T09:12:42;18.10;;;9.80;;
76848;SDS011;65814;51.134;16.980;2024-02-26T09:15:10;17.30;;;8.60;;
76848;SDS011;65814;51.134;16.980;2024-02-26T09:17:39;10.50;;;7.40;;
76848;SDS011;65814;51.134;16.980;2024-02-26T09:20:07;12.30;;;8.00;;
76848;SDS011;65814;51.134;16.980;2024-02-26T09:22:37;9.10;;;7.20;;
76848;SDS011;65814;51.134;16.980;2024-02-26T09:25:05;9.40;;;5.80;;
76848;SDS011;65814;51.134;16.980;2024-02-26T09:27:34;8.00;;;5.60;;
76848;SDS011;65814;51.134;16.980;2024-02-26T09:30:05;8.30;;;5.80;;
76848;SDS011;65814;51.134;16.980;2024-02-26T09:32:33;8.90;;;5.50;;
76848;SDS011;65814;51.134;16.980;2024-02-26T09:35:01;11.20;;;5.90;;
76848;SDS011;65814;51.134;16.980;2024-02-26T09:37:30;8.10;;;6.10;;
76848;SDS011;65814;51.134;16.980;2024-02-26T09:39:58;10.90;;;6.40;;
76848;SDS011;65814;51.134;16.980;2024-02-26T09:42:26;8.80;;;5.70;;
76848;SDS011;65814;51.134;16.980;2024-02-26T09:44:55;9.50;;;5.80;;
76848;SDS011;65814;51.134;16.980;2024-02-26T09:47:24;8.90;;;6.00;;
76848;SDS011;65814;51.134;16.980;2024-02-26T09:49:55;8.60;;;5.80;;
76848;SDS011;65814;51.134;16.980;2024-02-26T09:52:24;8.20;;;5.90;;
76848;SDS011;65814;51.134;16.980;2024-02-26T09:54:53;7.20;;;5.20;;
76848;SDS011;65814;51.134;16.980;2024-02-26T09:57:21;9.10;;;5.20;;
76848;SDS011;65814;51.134;16.980;2024-02-26T09:59:53;8.40;;;6.30;;
76848;SDS011;65814;51.134;16.980;2024-02-26T10:02:22;8.20;;;5.40;;
76848;SDS011;65814;51.134;16.980;2024-02-26T10:04:50;7.40;;;4.90;;
76848;SDS011;65814;51.134;16.980;2024-02-26T10:07:20;8.00;;;5.20;;
76848;SDS011;65814;51.134;16.980;2024-02-26T10:09:48;8.10;;;4.90;;
76848;SDS011;65814;51.134;16.980;2024-02-26T10:12:16;7.30;;;5.30;;
76848;SDS011;65814;51.134;16.980;2024-02-26T10:14:45;9.10;;;6.00;;
76848;SDS011;65814;51.134;16.980;2024-02-26T10:17:13;7.70;;;4.80;;
76848;SDS011;65814;51.134;16.980;2024-02-26T10:19:41;10.70;;;5.50;;
76848;SDS011;65814;51.134;16.980;2024-02-26T10:22:10;7.20;;;4.50;;
76848;SDS011;65814;51.134;16.980;2024-02-26T10:24:38;5.90;;;5.30;;
76848;SDS011;65814;51.134;16.980;2024-02-26T10:27:06;7.40;;;5.20;;
76848;SDS011;65814;51.134;16.980;2024-02-26T10:29:36;8.60;;;5.70;;
76848;SDS011;65814;51.134;16.980;2024-02-26T10:32:04;8.00;;;5.10;;
76848;SDS011;65814;51.134;16.980;2024-02-26T10:34:33;7.50;;;4.90;;
76848;SDS011;65814;51.134;16.980;2024-02-26T10:37:04;6.60;;;4.80;;
76848;SDS011;65814;51.134;16.980;2024-02-26T10:39:33;6.90;;;4.70;;
76848;SDS011;65814;51.134;16.980;2024-02-26T10:42:01;6.50;;;4.00;;
76848;SDS011;65814;51.134;16.980;2024-02-26T10:44:34;7.30;;;4.60;;
76848;SDS011;65814;51.134;16.980;2024-02-26T10:47:02;8.50;;;5.00;;
76848;SDS011;65814;51.134;16.980;2024-02-26T10:49:31;6.80;;;4.60;;
76848;SDS011;65814;51.134;16.980;2024-02-26T10:52:01;5.60;;;4.30;;
76848;SDS011;65814;51.134;16.980;2024-02-26T10:54:30;8.80;;;4.90;;
76848;SDS011;65814;51.134;16.980;2024-02-26T10:57:03;6.90;;;4.60;;
76848;SDS011;65814;51.134;16.980;2024-02-26T10:59:31;8.30;;;4.90;;
76848;SDS011;65814;51.134;16.980;2024-02-26T11:02:00;7.20;;;5.60;;
76848;SDS011;65814;51.134;16.980;2024-02-26T11:04:29;7.00;;;4.80;;
76848;SDS011;65814;51.134;16.980;2024-02-26T11:06:58;8.80;;;4.70;;
76848;SDS011;65814;51.134;16.980;2024-02-26T11:09:27;7.00;;;4.60;;
76848;SDS011;65814;51.134;16.980;2024-02-26T11:11:56;6.40;;;4.60;;
76848;SDS011;65814;51.134;16.980;2024-02-26T11:14:25;5.30;;;4.30;;
76848;SDS011;65814;51.134;16.980;2024-02-26T11:16:54;7.40;;;5.00;;
76848;SDS011;65814;51.134;16.980;2024-02-26T11:19:24;5.90;;;4.60;;
76848;SDS011;65814;51.134;16.980;2024-02-26T11:21:52;11.60;;;4.90;;
76848;SDS011;65814;51.134;16.980;2024-02-26T11:24:20;7.40;;;5.20;;
76848;SDS011;65814;51.134;16.980;2024-02-26T11:26:50;5.90;;;4.20;;
76848;SDS011;65814;51.134;16.980;2024-02-26T11:29:32;9.70;;;4.40;;
76848;SDS011;65814;51.134;16.980;2024-02-26T11:32:02;7.20;;;4.30;;
76848;SDS011;65814;51.134;16.980;2024-02-26T11:34:31;5.50;;;4.60;;
76848;SDS011;65814;51.134;16.980;2024-02-26T11:37:08;5.80;;;4.00;;
76848;SDS011;65814;51.134;16.980;2024-02-26T11:39:41;5.70;;;4.00;;
76848;SDS011;65814;51.134;16.980;2024-02-26T11:42:10;6.50;;;4.50;;
76848;SDS011;65814;51.134;16.980;2024-02-26T11:44:42;6.10;;;4.40;;
76848;SDS011;65814;51.134;16.980;2024-02-26T11:49:38;6.20;;;3.80;;
76848;SDS011;65814;51.134;16.980;2024-02-26T11:52:07;5.10;;;3.70;;
76848;SDS011;65814;51.134;16.980;2024-02-26T11:54:46;7.00;;;3.50;;
76848;SDS011;65814;51.134;16.980;2024-02-26T11:57:20;7.00;;;3.50;;
76848;SDS011;65814;51.134;16.980;2024-02-26T12:05:31;4.80;;;3.00;;
76848;SDS011;65814;51.134;16.980;2024-02-26T12:08:04;5.10;;;3.30;;
76848;SDS011;65814;51.134;16.980;2024-02-26T12:10:36;4.10;;;2.60;;
76848;SDS011;65814;51.134;16.980;2024-02-26T12:13:10;4.80;;;2.80;;
76848;SDS011;65814;51.134;16.980;2024-02-26T12:15:56;8.50;;;3.10;;
76848;SDS011;65814;51.134;16.980;2024-02-26T12:18:26;8.20;;;3.20;;
76848;SDS011;65814;51.134;16.980;2024-02-26T12:21:01;6.20;;;2.90;;
76848;SDS011;65814;51.134;16.980;2024-02-26T12:23:31;5.00;;;2.80;;
76848;SDS011;65814;51.134;16.980;2024-02-26T12:25:59;4.30;;;2.90;;
76848;SDS011;65814;51.134;16.980;2024-02-26T12:28:32;4.70;;;3.20;;
76848;SDS011;65814;51.134;16.980;2024-02-26T12:31:00;4.20;;;3.20;;
76848;SDS011;65814;51.134;16.980;2024-02-26T12:33:29;4.00;;;2.80;;
76848;SDS011;65814;51.134;16.980;2024-02-26T12:35:58;5.00;;;3.10;;
76848;SDS011;65814;51.134;16.980;2024-02-26T12:38:26;4.70;;;2.80;;
76848;SDS011;65814;51.134;16.980;2024-02-26T12:40:55;3.90;;;2.30;;
76848;SDS011;65814;51.134;16.980;2024-02-26T12:43:23;3.90;;;2.50;;
76848;SDS011;65814;51.134;16.980;2024-02-26T12:45:51;4.50;;;2.70;;
76848;SDS011;65814;51.134;16.980;2024-02-26T12:48:19;4.60;;;2.80;;
76848;SDS011;65814;51.134;16.980;2024-02-26T12:50:48;4.90;;;3.10;;
76848;SDS011;65814;51.134;16.980;2024-02-26T12:53:17;4.40;;;3.00;;
76848;SDS011;65814;51.134;16.980;2024-02-26T12:55:45;3.40;;;2.10;;
76848;SDS011;65814;51.134;16.980;2024-02-26T12:58:13;3.70;;;2.40;;
76848;SDS011;65814;51.134;16.980;2024-02-26T13:00:43;4.30;;;2.80;;
76848;SDS011;65814;51.134;16.980;2024-02-26T13:03:11;4.30;;;2.70;;
76848;SDS011;65814;51.134;16.980;2024-02-26T13:05:40;4.40;;;3.10;;
76848;SDS011;65814;51.134;16.980;2024-02-26T13:08:08;4.20;;;3.00;;
76848;SDS011;65814;51.134;16.980;2024-02-26T13:10:36;3.70;;;2.70;;
76848;SDS011;65814;51.134;16.980;2024-02-26T13:13:05;5.50;;;2.80;;
76848;SDS011;65814;51.134;16.980;2024-02-26T13:15:33;3.40;;;2.20;;
76848;SDS011;65814;51.134;16.980;2024-02-26T13:18:08;4.70;;;3.60;;
76848;SDS011;65814;51.134;16.980;2024-02-26T13:20:38;5.80;;;2.80;;
76848;SDS011;65814;51.134;16.980;2024-02-26T13:23:09;4.50;;;3.00;;
76848;SDS011;65814;51.134;16.980;2024-02-26T13:25:39;4.70;;;2.90;;
76848;SDS011;65814;51.134;16.980;2024-02-26T13:28:13;5.30;;;3.30;;
76848;SDS011;65814;51.134;16.980;2024-02-26T13:30:52;7.40;;;3.00;;
76848;SDS011;65814;51.134;16.980;2024-02-26T13:33:24;5.30;;;3.00;;
76848;SDS011;65814;51.134;16.980;2024-02-26T13:35:54;9.40;;;3.90;;
76848;SDS011;65814;51.134;16.980;2024-02-26T13:38:23;5.70;;;3.20;;
76848;SDS011;65814;51.134;16.980;2024-02-26T13:40:52;8.60;;;3.80;;
76848;SDS011;65814;51.134;16.980;2024-02-26T13:43:20;4.90;;;2.70;;
76848;SDS011;65814;51.134;16.980;2024-02-26T13:45:49;6.30;;;3.00;;
76848;SDS011;65814;51.134;16.980;2024-02-26T13:48:17;8.80;;;4.40;;
76848;SDS011;65814;51.134;16.980;2024-02-26T13:50:46;4.40;;;3.10;;
76848;SDS011;65814;51.134;16.980;2024-02-26T13:53:14;5.10;;;3.20;;
76848;SDS011;65814;51.134;16.980;2024-02-26T13:55:42;4.20;;;2.70;;
76848;SDS011;65814;51.134;16.980;2024-02-26T13:58:12;5.00;;;3.50;;
76848;SDS011;65814;51.134;16.980;2024-02-26T14:00:43;5.90;;;3.20;;
76848;SDS011;65814;51.134;16.980;2024-02-26T14:03:12;4.10;;;3.00;;
76848;SDS011;65814;51.134;16.980;2024-02-26T14:05:40;4.80;;;3.20;;
76848;SDS011;65814;51.134;16.980;2024-02-26T14:08:14;4.30;;;2.80;;
76848;SDS011;65814;51.134;16.980;2024-02-26T14:10:43;4.60;;;2.90;;
76848;SDS011;65814;51.134;16.980;2024-02-26T14:13:12;6.30;;;3.10;;
76848;SDS011;65814;51.134;16.980;2024-02-26T14:15:40;6.10;;;3.60;;
76848;SDS011;65814;51.134;16.980;2024-02-26T14:18:08;4.80;;;3.30;;
76848;SDS011;65814;51.134;16.980;2024-02-26T14:20:37;5.10;;;3.10;;
76848;SDS011;65814;51.134;16.980;2024-02-26T14:23:06;4.40;;;2.50;;
76848;SDS011;65814;51.134;16.980;2024-02-26T14:25:34;5.20;;;2.70;;
76848;SDS011;65814;51.134;16.980;2024-02-26T14:28:03;4.60;;;3.00;;
76848;SDS011;65814;51.134;16.980;2024-02-26T14:30:31;6.20;;;2.90;;
76848;SDS011;65814;51.134;16.980;2024-02-26T14:33:00;3.80;;;2.80;;
76848;SDS011;65814;51.134;16.980;2024-02-26T14:35:28;5.10;;;2.90;;